createdAt,value
2022-08-30T00:02:20.826Z,1.50
2022-08-30T00:04:48.306Z,1.77
2022-08-30T00:07:15.571Z,1.90
2022-08-30T00:09:42.493Z,1.80
2022-08-30T00:12:09.554Z,1.80
2022-08-30T00:14:36.994Z,1.70
2022-08-30T00:17:03.879Z,1.70
2022-08-30T00:19:30.651Z,2.03
2022-08-30T00:21:57.696Z,1.93
2022-08-30T00:24:24.453Z,2.13
2022-08-30T00:26:51.205Z,1.60
2022-08-30T00:29:18.121Z,2.03
2022-08-30T00:31:44.907Z,1.83
2022-08-30T00:34:11.679Z,1.60
2022-08-30T00:36:38.457Z,1.70
2022-08-30T00:39:06.345Z,1.77
2022-08-30T00:41:33.323Z,1.80
2022-08-30T00:44:00.850Z,1.90
2022-08-30T00:46:28.042Z,1.77
2022-08-30T00:48:56.283Z,1.87
2022-08-30T00:51:24.241Z,1.80
2022-08-30T00:53:57.278Z,1.97
2022-08-30T00:56:25.924Z,1.70
2022-08-30T00:58:57.244Z,1.80
2022-08-30T01:01:25.004Z,1.70
2022-08-30T01:03:52.386Z,1.40
2022-08-30T01:06:19.182Z,1.70
2022-08-30T01:08:47.299Z,1.80
2022-08-30T01:11:18.566Z,1.80
2022-08-30T01:13:47.363Z,1.70
2022-08-30T01:16:15.154Z,1.67
2022-08-30T01:18:42.830Z,1.90
2022-08-30T01:21:22.513Z,1.80
2022-08-30T01:23:53.862Z,1.90
2022-08-30T01:26:22.235Z,1.70
2022-08-30T01:28:55.369Z,1.67
2022-08-30T01:31:22.945Z,1.63
2022-08-30T01:33:51.014Z,1.60
2022-08-30T01:36:19.980Z,1.80
2022-08-30T01:38:57.784Z,1.90
2022-08-30T01:41:28.332Z,1.60
2022-08-30T01:43:57.173Z,1.77
2022-08-30T01:46:28.227Z,1.50
2022-08-30T01:48:57.957Z,1.70
2022-08-30T01:51:27.942Z,1.43
2022-08-30T01:53:55.292Z,1.60
2022-08-30T01:56:23.314Z,1.90
2022-08-30T01:58:50.592Z,1.70
2022-08-30T02:01:21.926Z,1.43
2022-08-30T02:03:48.830Z,1.87
2022-08-30T02:06:19.022Z,1.70
2022-08-30T02:08:46.684Z,1.47
2022-08-30T02:11:14.096Z,1.40
2022-08-30T02:13:42.213Z,1.50
2022-08-30T02:16:11.816Z,1.83
2022-08-30T02:18:42.045Z,1.77
2022-08-30T02:21:09.706Z,1.47
2022-08-30T02:23:37.041Z,2.00
2022-08-30T02:26:05.039Z,1.90
2022-08-30T02:28:31.915Z,1.93
2022-08-30T02:31:00.055Z,1.67
2022-08-30T02:33:27.082Z,1.93
2022-08-30T02:35:54.314Z,1.70
2022-08-30T02:38:21.069Z,1.77
2022-08-30T02:40:47.817Z,1.80
2022-08-30T02:43:15.123Z,1.60
2022-08-30T02:45:42.211Z,1.77
2022-08-30T02:48:09.109Z,1.50
2022-08-30T02:50:40.010Z,1.93
2022-08-30T02:53:06.754Z,1.90
2022-08-30T02:55:36.388Z,1.80
2022-08-30T02:58:03.133Z,1.73
2022-08-30T03:00:30.328Z,2.07
2022-08-30T03:02:57.523Z,1.93
2022-08-30T03:05:24.863Z,1.50
2022-08-30T03:07:51.985Z,1.57
2022-08-30T03:10:18.812Z,1.50
2022-08-30T03:12:47.749Z,1.87
2022-08-30T03:15:15.915Z,1.90
2022-08-30T03:17:42.686Z,1.80
2022-08-30T03:20:11.130Z,1.70
2022-08-30T03:22:38.893Z,1.67
2022-08-30T03:25:06.154Z,1.77
2022-08-30T03:27:32.988Z,1.97
2022-08-30T03:29:59.747Z,1.70
2022-08-30T03:32:26.515Z,1.93
2022-08-30T03:34:53.419Z,1.80
2022-08-30T03:37:23.239Z,1.80
2022-08-30T03:39:52.327Z,1.60
2022-08-30T03:42:20.050Z,1.73
2022-08-30T03:44:48.268Z,1.53
2022-08-30T03:47:15.401Z,1.70
2022-08-30T03:49:42.509Z,2.00
2022-08-30T03:52:09.398Z,1.53
2022-08-30T03:54:36.210Z,1.53
2022-08-30T03:57:04.679Z,1.57
2022-08-30T03:59:31.450Z,1.60
2022-08-30T04:01:59.188Z,1.60
2022-08-30T04:04:26.084Z,1.50
2022-08-30T04:06:52.876Z,1.50
2022-08-30T04:09:20.030Z,1.47
2022-08-30T04:11:46.764Z,1.97
2022-08-30T04:14:13.927Z,1.70
2022-08-30T04:16:41.075Z,1.63
2022-08-30T04:19:07.870Z,1.90
2022-08-30T04:21:35.547Z,1.83
2022-08-30T04:24:09.616Z,1.60
2022-08-30T04:26:36.676Z,1.70
2022-08-30T04:29:03.976Z,1.60
2022-08-30T04:31:33.920Z,1.50
2022-08-30T04:34:00.711Z,1.90
2022-08-30T04:36:27.485Z,1.80
2022-08-30T04:38:54.260Z,1.90
2022-08-30T04:41:24.438Z,1.80
2022-08-30T04:43:51.570Z,1.63
2022-08-30T04:46:19.563Z,1.87
2022-08-30T04:48:47.318Z,1.73
2022-08-30T04:51:16.815Z,1.80
2022-08-30T04:53:44.700Z,1.40
2022-08-30T04:56:17.799Z,1.70
2022-08-30T04:58:44.847Z,1.73
2022-08-30T05:01:19.024Z,1.60
2022-08-30T05:03:48.779Z,1.70
2022-08-30T05:06:16.860Z,1.90
2022-08-30T05:08:46.319Z,1.93
2022-08-30T05:11:15.430Z,1.73
2022-08-30T05:13:43.797Z,1.90
2022-08-30T05:16:11.138Z,1.77
2022-08-30T05:18:38.077Z,1.63
2022-08-30T05:21:10.064Z,2.03
2022-08-30T05:23:38.667Z,1.73
2022-08-30T05:26:15.451Z,1.80
2022-08-30T05:28:42.533Z,1.70
2022-08-30T05:31:19.149Z,1.70
2022-08-30T05:33:47.303Z,1.50
2022-08-30T05:36:16.616Z,1.80
2022-08-30T05:38:43.653Z,1.97
2022-08-30T05:41:12.125Z,2.07
2022-08-30T05:43:39.448Z,1.80
2022-08-30T05:46:10.512Z,1.87
2022-08-30T05:48:39.004Z,1.67
2022-08-30T05:51:09.736Z,1.70
2022-08-30T05:53:36.678Z,1.90
2022-08-30T05:56:05.918Z,1.63
2022-08-30T05:58:33.265Z,2.10
2022-08-30T06:01:00.583Z,1.90
2022-08-30T06:03:28.140Z,1.73
2022-08-30T06:05:55.031Z,2.10
2022-08-30T06:08:22.293Z,2.20
2022-08-30T06:10:49.064Z,1.90
2022-08-30T06:13:16.418Z,2.03
2022-08-30T06:15:47.070Z,1.90
2022-08-30T06:18:14.302Z,1.93
2022-08-30T06:20:47.458Z,2.20
2022-08-30T06:23:17.984Z,2.03
2022-08-30T06:25:45.065Z,2.00
2022-08-30T06:28:12.231Z,2.00
2022-08-30T06:30:41.129Z,2.00
2022-08-30T06:33:07.831Z,2.10
2022-08-30T06:35:38.113Z,1.90
2022-08-30T06:38:09.057Z,2.10
2022-08-30T06:40:36.446Z,2.00
2022-08-30T06:43:03.250Z,1.90
2022-08-30T06:45:30.989Z,2.17
2022-08-30T06:50:25.757Z,2.13
2022-08-30T06:52:52.563Z,2.17
2022-08-30T06:55:19.791Z,2.03
2022-08-30T06:57:46.843Z,2.13
2022-08-30T07:00:16.325Z,1.90
2022-08-30T07:02:43.477Z,2.05
2022-08-30T07:05:15.366Z,1.88
2022-08-30T07:07:44.860Z,2.58
2022-08-30T07:10:11.746Z,2.15
2022-08-30T07:12:38.512Z,2.10
2022-08-30T07:15:06.002Z,2.20
2022-08-30T07:17:52.425Z,2.70
2022-08-30T07:20:21.498Z,2.42
2022-08-30T07:22:48.697Z,1.90
2022-08-30T07:25:16.105Z,2.35
2022-08-30T07:27:45.918Z,1.90
2022-08-30T07:30:13.333Z,2.17
2022-08-30T07:32:40.118Z,2.10
2022-08-30T07:35:07.128Z,2.30
2022-08-30T07:37:34.120Z,2.10
2022-08-30T07:40:00.918Z,2.17
2022-08-30T07:42:27.738Z,2.28
2022-08-30T07:44:56.786Z,2.08
2022-08-30T07:47:23.752Z,2.10
2022-08-30T07:49:50.545Z,2.20
2022-08-30T07:52:17.362Z,2.13
2022-08-30T07:54:44.207Z,2.40
2022-08-30T07:57:12.077Z,1.88
2022-08-30T07:59:43.207Z,2.15
2022-08-30T08:02:10.121Z,1.92
2022-08-30T08:04:36.960Z,2.20
2022-08-30T08:07:04.012Z,2.30
2022-08-30T08:09:30.880Z,2.00
2022-08-30T08:11:57.650Z,2.10
2022-08-30T08:14:24.461Z,2.20
2022-08-30T08:16:52.005Z,2.13
2022-08-30T08:19:19.627Z,2.40
2022-08-30T08:21:46.613Z,2.50
2022-08-30T08:24:13.485Z,2.05
2022-08-30T08:26:41.135Z,2.20
2022-08-30T08:29:12.441Z,2.30
2022-08-30T08:31:41.399Z,2.55
2022-08-30T08:34:08.789Z,2.20
2022-08-30T08:36:36.422Z,2.40
2022-08-30T08:39:05.259Z,2.63
2022-08-30T08:41:49.981Z,2.50
2022-08-30T08:44:24.577Z,3.00
2022-08-30T08:47:35.912Z,2.75
2022-08-30T08:50:06.412Z,2.47
2022-08-30T08:53:04.437Z,2.90
2022-08-30T08:55:31.788Z,3.10
2022-08-30T08:57:58.964Z,2.80
2022-08-30T09:00:25.879Z,2.60
2022-08-30T09:03:04.344Z,3.10
2022-08-30T09:05:40.516Z,2.90
2022-08-30T09:08:14.682Z,2.70
2022-08-30T09:10:50.832Z,2.90
2022-08-30T09:13:21.062Z,2.80
2022-08-30T09:15:54.336Z,2.75
2022-08-30T09:18:40.991Z,2.88
2022-08-30T09:21:10.024Z,2.70
2022-08-30T09:23:37.019Z,3.00
2022-08-30T09:26:09.383Z,2.65
2022-08-30T09:28:51.088Z,2.70
2022-08-30T09:31:23.718Z,2.70
2022-08-30T09:34:06.540Z,2.80
2022-08-30T09:36:51.970Z,2.42
2022-08-30T09:39:31.384Z,2.80
2022-08-30T09:42:25.317Z,2.80
2022-08-30T09:44:53.905Z,2.78
2022-08-30T09:47:28.051Z,3.17
2022-08-30T09:50:15.548Z,3.00
2022-08-30T09:52:49.915Z,3.08
2022-08-30T09:55:32.247Z,2.97
2022-08-30T09:58:17.288Z,3.17
2022-08-30T10:00:55.940Z,3.08
2022-08-30T10:03:40.177Z,2.95
2022-08-30T10:06:37.269Z,3.00
2022-08-30T10:09:28.423Z,3.05
2022-08-30T10:12:03.987Z,2.72
2022-08-30T10:14:40.023Z,2.65
2022-08-30T10:17:34.985Z,2.90
2022-08-30T10:20:36.857Z,3.25
2022-08-30T10:23:16.684Z,2.75
2022-08-30T10:25:50.432Z,3.08
2022-08-30T10:28:36.540Z,3.30
2022-08-30T10:31:11.118Z,2.78
2022-08-30T10:33:42.355Z,3.03
2022-08-30T10:36:12.440Z,3.15
2022-08-30T10:38:42.570Z,3.28
2022-08-30T10:41:27.787Z,3.00
2022-08-30T10:44:03.367Z,2.85
2022-08-30T10:47:07.052Z,3.00
2022-08-30T10:49:44.954Z,2.95
2022-08-30T10:52:31.129Z,3.00
2022-08-30T10:55:02.813Z,2.97
2022-08-30T10:57:29.734Z,3.03
2022-08-30T11:00:11.017Z,3.00
2022-08-30T11:03:02.381Z,3.10
2022-08-30T11:05:42.177Z,3.00
2022-08-30T11:08:46.266Z,3.00
2022-08-30T11:11:32.217Z,3.00
2022-08-30T11:14:05.629Z,2.95
2022-08-30T11:16:45.430Z,2.80
2022-08-30T11:19:32.144Z,3.08
2022-08-30T11:22:16.123Z,3.45
2022-08-30T11:25:01.858Z,2.80
2022-08-30T11:27:56.774Z,2.67
2022-08-30T11:30:27.430Z,3.00
2022-08-30T11:33:02.337Z,2.92
2022-08-30T11:35:52.340Z,2.40
2022-08-30T11:38:25.558Z,2.60
2022-08-30T11:40:55.257Z,2.63
2022-08-30T11:43:42.184Z,2.70
2022-08-30T11:46:19.075Z,2.90
2022-08-30T11:48:53.728Z,2.55
2022-08-30T11:51:36.889Z,2.80
2022-08-30T11:54:43.508Z,2.63
2022-08-30T11:57:17.493Z,2.95
2022-08-30T11:59:59.449Z,2.88
2022-08-30T12:02:56.153Z,2.97
2022-08-30T12:05:49.353Z,3.10
2022-08-30T12:08:21.319Z,3.25
2022-08-30T12:10:52.987Z,3.00
2022-08-30T12:13:38.364Z,3.38
2022-08-30T12:16:14.927Z,3.45
2022-08-30T12:18:45.398Z,3.10
2022-08-30T12:21:21.544Z,3.28
2022-08-30T12:23:55.092Z,2.97
2022-08-30T12:26:25.957Z,3.10
2022-08-30T12:29:06.716Z,3.10
2022-08-30T12:31:40.961Z,3.03
2022-08-30T12:34:08.546Z,3.10
2022-08-30T12:36:49.436Z,2.97
2022-08-30T12:39:26.940Z,3.55
2022-08-30T12:41:54.185Z,3.10
2022-08-30T12:44:26.682Z,3.35
2022-08-30T12:47:00.723Z,3.00
2022-08-30T12:49:31.593Z,3.40
2022-08-30T12:52:28.734Z,2.88
2022-08-30T12:55:17.649Z,2.92
2022-08-30T12:58:00.556Z,3.10
2022-08-30T13:00:40.785Z,3.40
2022-08-30T13:03:24.159Z,2.92
2022-08-30T13:05:53.058Z,3.25
2022-08-30T13:08:45.735Z,3.10
2022-08-30T13:11:29.564Z,3.15
2022-08-30T13:14:18.394Z,3.30
2022-08-30T13:16:46.694Z,3.10
2022-08-30T13:19:36.616Z,3.60
2022-08-30T13:22:04.691Z,3.25
2022-08-30T13:24:31.784Z,3.65
2022-08-30T13:27:06.620Z,3.28
2022-08-30T13:29:34.535Z,3.25
2022-08-30T13:32:01.353Z,3.35
2022-08-30T13:34:32.938Z,3.38
2022-08-30T13:37:00.045Z,3.22
2022-08-30T13:39:27.915Z,3.17
2022-08-30T13:41:56.125Z,3.28
2022-08-30T13:44:42.780Z,3.45
2022-08-30T13:49:59.243Z,3.03
2022-08-30T13:52:26.072Z,3.28
2022-08-30T13:54:54.634Z,3.40
2022-08-30T14:00:17.791Z,3.28
2022-08-30T14:02:51.508Z,3.40
2022-08-30T14:05:48.439Z,3.55
2022-08-30T14:11:07.252Z,3.50
2022-08-30T14:13:34.078Z,3.33
2022-08-30T14:18:52.551Z,3.22
2022-08-30T14:21:24.212Z,3.40
2022-08-30T14:23:53.237Z,3.42
2022-08-30T14:26:23.248Z,3.60
2022-08-30T14:28:51.731Z,3.05
2022-08-30T14:31:19.718Z,3.17
2022-08-30T14:33:47.721Z,3.67
2022-08-30T14:36:15.282Z,3.22
2022-08-30T14:38:43.495Z,3.45
2022-08-30T14:41:10.960Z,3.30
2022-08-30T14:43:40.349Z,3.22
2022-08-30T14:46:08.730Z,3.30
2022-08-30T14:48:37.461Z,3.60
2022-08-30T14:51:25.180Z,3.00
2022-08-30T14:53:53.693Z,3.42
2022-08-30T14:56:22.112Z,3.35
2022-08-30T14:58:51.073Z,3.20
2022-08-30T15:01:19.695Z,3.25
2022-08-30T15:03:46.998Z,3.50
2022-08-30T15:06:13.899Z,3.67
2022-08-30T15:08:40.978Z,3.15
2022-08-30T15:11:12.903Z,3.17
2022-08-30T15:13:40.794Z,3.22
2022-08-30T15:16:24.656Z,3.22
2022-08-30T15:18:52.007Z,2.95
2022-08-30T15:21:27.275Z,3.38
2022-08-30T15:23:54.731Z,3.20
2022-08-30T15:26:21.932Z,3.30
2022-08-30T15:28:49.196Z,3.22
2022-08-30T15:31:18.771Z,3.47
2022-08-30T15:33:46.023Z,3.20
2022-08-30T15:36:13.069Z,3.40
2022-08-30T15:38:42.317Z,2.90
2022-08-30T15:41:12.234Z,3.60
2022-08-30T15:43:43.444Z,3.00
2022-08-30T15:46:32.508Z,3.40
2022-08-30T15:49:02.311Z,3.30
2022-08-30T15:51:30.885Z,3.13
2022-08-30T15:54:08.681Z,3.38
2022-08-30T15:56:35.720Z,2.90
2022-08-30T15:59:02.600Z,3.55
2022-08-30T16:01:30.835Z,3.28
2022-08-30T16:03:58.837Z,3.70
2022-08-30T16:06:30.288Z,3.35
2022-08-30T16:08:57.917Z,3.45
2022-08-30T16:11:25.803Z,3.50
2022-08-30T16:13:55.364Z,3.30
2022-08-30T16:16:23.647Z,3.53
2022-08-30T16:18:53.831Z,3.33
2022-08-30T16:21:24.799Z,3.40
2022-08-30T16:23:54.905Z,3.20
2022-08-30T16:26:22.063Z,3.67
2022-08-30T16:28:49.287Z,3.53
2022-08-30T16:31:18.172Z,3.50
2022-08-30T16:33:45.958Z,3.40
2022-08-30T16:36:13.927Z,2.90
2022-08-30T16:38:42.362Z,3.53
2022-08-30T16:41:12.309Z,3.38
2022-08-30T16:43:40.166Z,3.22
2022-08-30T16:46:11.188Z,3.10
2022-08-30T16:48:39.410Z,3.20
2022-08-30T16:51:10.354Z,3.58
2022-08-30T16:53:37.956Z,3.17
2022-08-30T16:56:12.875Z,3.55
2022-08-30T16:58:40.673Z,3.20
2022-08-30T17:01:07.786Z,3.22
2022-08-30T17:03:38.087Z,3.17
2022-08-30T17:06:05.824Z,3.30
2022-08-30T17:08:33.795Z,3.20
2022-08-30T17:11:00.603Z,3.30
2022-08-30T17:13:27.361Z,3.22
2022-08-30T17:15:54.379Z,2.88
2022-08-30T17:18:21.340Z,3.20
2022-08-30T17:20:48.163Z,3.37
2022-08-30T17:23:15.404Z,3.30
2022-08-30T17:25:43.369Z,3.22
2022-08-30T17:28:11.061Z,2.83
2022-08-30T17:30:38.282Z,3.15
2022-08-30T17:33:08.298Z,3.15
2022-08-30T17:35:35.254Z,2.92
2022-08-30T17:38:02.160Z,2.80
2022-08-30T17:40:29.678Z,3.00
2022-08-30T17:42:56.537Z,2.60
2022-08-30T17:45:23.398Z,2.93
2022-08-30T17:47:50.156Z,2.53
2022-08-30T17:50:19.507Z,2.47
2022-08-30T17:52:46.551Z,2.47
2022-08-30T17:55:14.292Z,2.53
2022-08-30T17:57:41.981Z,2.47
2022-08-30T18:00:15.610Z,3.03
2022-08-30T18:02:42.733Z,2.70
2022-08-30T18:05:10.081Z,2.43
2022-08-30T18:07:37.279Z,2.27
2022-08-30T18:10:05.456Z,2.63
2022-08-30T18:12:33.744Z,2.60
2022-08-30T18:15:01.576Z,2.40
2022-08-30T18:17:38.816Z,2.37
2022-08-30T18:20:07.291Z,2.60
2022-08-30T18:22:34.636Z,2.40
2022-08-30T18:25:02.721Z,2.50
2022-08-30T18:27:29.623Z,2.40
2022-08-30T18:29:56.370Z,2.30
2022-08-30T18:32:23.517Z,2.27
2022-08-30T18:34:59.747Z,2.17
2022-08-30T18:37:26.623Z,2.50
2022-08-30T18:39:53.622Z,2.27
2022-08-30T18:42:20.407Z,2.30
2022-08-30T18:44:47.674Z,2.10
2022-08-30T18:47:14.474Z,2.20
2022-08-30T18:49:41.257Z,2.50
2022-08-30T18:52:09.890Z,2.17
2022-08-30T18:54:40.372Z,2.20
2022-08-30T18:57:07.582Z,2.30
2022-08-30T18:59:37.988Z,2.23
2022-08-30T19:02:06.865Z,1.93
2022-08-30T19:04:35.116Z,2.30
2022-08-30T19:07:06.570Z,2.17
2022-08-30T19:09:33.512Z,2.30
2022-08-30T19:12:00.436Z,2.30
2022-08-30T19:14:28.161Z,2.20
2022-08-30T19:16:56.640Z,2.10
2022-08-30T19:19:23.579Z,2.37
2022-08-30T19:21:50.415Z,2.00
2022-08-30T19:24:17.939Z,2.13
2022-08-30T19:26:46.758Z,1.97
2022-08-30T19:29:14.755Z,2.10
2022-08-30T19:31:43.633Z,2.50
2022-08-30T19:34:11.827Z,2.57
2022-08-30T19:36:39.035Z,2.30
2022-08-30T19:39:06.761Z,2.73
2022-08-30T19:41:33.588Z,2.30
2022-08-30T19:44:02.910Z,2.30
2022-08-30T19:46:30.550Z,2.23
2022-08-30T19:49:01.054Z,2.10
2022-08-30T19:51:27.993Z,1.90
2022-08-30T19:56:41.576Z,2.27
2022-08-30T19:59:08.458Z,2.20
2022-08-30T20:01:37.584Z,2.27
2022-08-30T20:04:04.531Z,2.20
2022-08-30T20:06:32.617Z,2.20
2022-08-30T20:09:00.587Z,2.30
2022-08-30T20:11:28.043Z,2.10
2022-08-30T20:13:54.789Z,2.37
2022-08-30T20:16:21.752Z,2.00
2022-08-30T20:19:04.315Z,1.77
2022-08-30T20:21:33.088Z,2.07
2022-08-30T20:24:00.861Z,2.10
2022-08-30T20:26:33.896Z,2.03
2022-08-30T20:29:03.156Z,1.77
2022-08-30T20:31:30.255Z,1.90
2022-08-30T20:33:57.557Z,2.30
2022-08-30T20:36:24.329Z,2.03
2022-08-30T20:38:51.179Z,1.90
2022-08-30T20:41:18.979Z,2.20
2022-08-30T20:43:46.971Z,1.90
2022-08-30T20:46:16.947Z,2.27
2022-08-30T20:48:44.369Z,2.03
2022-08-30T20:51:15.419Z,2.20
2022-08-30T20:53:43.379Z,2.77
2022-08-30T20:56:15.402Z,2.07
2022-08-30T20:58:43.094Z,2.30
2022-08-30T21:01:11.740Z,2.30
2022-08-30T21:03:40.871Z,2.03
2022-08-30T21:06:07.929Z,1.80
2022-08-30T21:08:34.822Z,2.20
2022-08-30T21:11:01.809Z,2.20
2022-08-30T21:13:28.638Z,1.90
2022-08-30T21:16:00.630Z,2.47
2022-08-30T21:18:33.060Z,2.20
2022-08-30T21:21:08.123Z,2.40
2022-08-30T21:23:35.634Z,2.10
2022-08-30T21:26:09.654Z,2.10
2022-08-30T21:28:37.008Z,2.27
2022-08-30T21:31:12.668Z,2.20
2022-08-30T21:33:41.005Z,2.20
2022-08-30T21:36:27.490Z,2.20
2022-08-30T21:38:57.578Z,2.00
2022-08-30T21:41:28.794Z,2.10
2022-08-30T21:44:01.096Z,2.10
2022-08-30T21:46:29.178Z,2.00
2022-08-30T21:48:59.114Z,2.20
2022-08-30T21:51:25.904Z,2.23
2022-08-30T21:53:52.636Z,2.20
2022-08-30T21:56:22.105Z,2.03
2022-08-30T21:58:49.794Z,2.30
2022-08-30T22:01:25.401Z,2.23
2022-08-30T22:03:54.809Z,2.37
2022-08-30T22:06:22.583Z,2.33
2022-08-30T22:08:55.711Z,2.23
2022-08-30T22:11:25.254Z,2.30
2022-08-30T22:13:53.569Z,2.10
2022-08-30T22:16:21.262Z,2.23
2022-08-30T22:18:48.573Z,2.40
2022-08-30T22:21:21.962Z,2.10
2022-08-30T22:23:48.923Z,2.27
2022-08-30T22:26:17.818Z,2.40
2022-08-30T22:28:44.898Z,2.30
2022-08-30T22:31:13.743Z,2.50
2022-08-30T22:33:41.587Z,2.40
2022-08-30T22:36:12.551Z,2.03
2022-08-30T22:38:39.741Z,2.03
2022-08-30T22:41:16.573Z,2.03
2022-08-30T22:43:44.436Z,2.23
2022-08-30T22:46:11.925Z,2.23
2022-08-30T22:48:41.326Z,2.30
2022-08-30T22:51:09.867Z,2.07
2022-08-30T22:53:36.682Z,2.20
2022-08-30T22:56:09.828Z,2.27
2022-08-30T22:58:36.713Z,2.30
2022-08-30T23:01:04.036Z,2.03
2022-08-30T23:03:31.678Z,2.40
2022-08-30T23:05:58.503Z,2.17
2022-08-30T23:08:25.940Z,2.60
2022-08-30T23:10:53.033Z,2.60
2022-08-30T23:13:19.911Z,2.47
2022-08-30T23:15:46.757Z,2.60
2022-08-30T23:18:13.480Z,2.30
2022-08-30T23:20:40.219Z,2.47
2022-08-30T23:23:06.901Z,2.40
2022-08-30T23:25:52.657Z,2.20
2022-08-30T23:28:39.634Z,2.60
2022-08-30T23:31:36.255Z,2.40
2022-08-30T23:34:21.341Z,2.40
2022-08-30T23:37:06.764Z,2.50
2022-08-30T23:39:52.198Z,2.40
2022-08-30T23:42:37.485Z,2.43
2022-08-30T23:45:23.546Z,2.70
2022-08-30T23:48:08.686Z,2.30
2022-08-30T23:50:54.284Z,2.40
2022-08-30T23:53:39.752Z,2.27
2022-08-30T23:56:31.150Z,2.43
2022-08-30T23:59:16.606Z,2.53
